Terminal Aerodrome Forecast
Issued by NWS

Home | Current Version | Previous Version | Text Only | Print | Product List | Glossary On
Versions: 1 2 3 4 5 6 7 8 9 10 11 12 13 14 15 16 17 18
000
FTUS44 KMAF 202000 AAA
TAFFST
TAF AMD
KFST 202049Z 2021/2118 36008KT P6SM SCT050 BKN070
      TEMPO 2021/2101 5SM BR BKN007
     FM210100 11009KT P6SM BKN030
      TEMPO 2110/2114 5SM SHRA BR BKN010=

USA.gov is the U.S. government's official web portal to all federal, state and local government web resources and services.